Bordentown, New Jersey
Current Conditions -  °F | °C
As of 12:53 PM on Monday 22 Dec 2014 (Local Time) from KTTN Reporting Station
Haze Haze  
Wind Chill: 34°   Ceiling: 1700
Heat Index: 40°   Visibility: 6mi
Dew Point: 33°   Wind: 8mph
Humidity: 77%   Direction: 50°NE
Pressure: 30.23"   Gusts: NA
Location:  40.15°N, 74.71°W
Report Text: KTTN 221753Z 05007KT 6SM HZ OVC017 04/01 A3023 RMK AO2 SLP232 T00440006 10056 20011 58029
Loading
Personal Weather Stations






























Interactive Weather Map New forecast layout! Learn more

10-Day Weather Forecast

Advertisements
Track Severe Weather on mobile